sensor_id;sensor_type;location;lat;lon;timestamp;temperature;humidity
29031;DHT22;16122;50.236;11.734;2024-01-15T00:02:09;15.70;67.40
29031;DHT22;16122;50.236;11.734;2024-01-15T00:04:39;15.70;67.40
29031;DHT22;16122;50.236;11.734;2024-01-15T00:07:05;15.70;67.30
29031;DHT22;16122;50.236;11.734;2024-01-15T00:09:31;15.70;67.20
29031;DHT22;16122;50.236;11.734;2024-01-15T00:11:57;15.80;66.80
29031;DHT22;16122;50.236;11.734;2024-01-15T00:14:23;15.90;65.80
29031;DHT22;16122;50.236;11.734;2024-01-15T00:16:49;15.90;65.60
29031;DHT22;16122;50.236;11.734;2024-01-15T00:19:17;16.00;65.80
29031;DHT22;16122;50.236;11.734;2024-01-15T00:21:44;16.00;65.70
29031;DHT22;16122;50.236;11.734;2024-01-15T00:24:10;16.10;65.80
29031;DHT22;16122;50.236;11.734;2024-01-15T00:26:35;16.10;65.80
29031;DHT22;16122;50.236;11.734;2024-01-15T00:29:01;16.20;65.70
29031;DHT22;16122;50.236;11.734;2024-01-15T00:31:29;16.30;65.60
29031;DHT22;16122;50.236;11.734;2024-01-15T00:33:56;16.30;65.40
29031;DHT22;16122;50.236;11.734;2024-01-15T00:36:23;16.30;65.30
29031;DHT22;16122;50.236;11.734;2024-01-15T00:38:49;16.40;65.50
29031;DHT22;16122;50.236;11.734;2024-01-15T00:41:15;16.50;65.10
29031;DHT22;16122;50.236;11.734;2024-01-15T00:43:41;16.50;65.30
29031;DHT22;16122;50.236;11.734;2024-01-15T00:46:07;16.50;65.40
29031;DHT22;16122;50.236;11.734;2024-01-15T00:48:32;16.50;65.10
29031;DHT22;16122;50.236;11.734;2024-01-15T00:50:58;16.50;64.90
29031;DHT22;16122;50.236;11.734;2024-01-15T00:53:26;16.50;64.80
29031;DHT22;16122;50.236;11.734;2024-01-15T00:55:52;16.60;65.10
29031;DHT22;16122;50.236;11.734;2024-01-15T00:58:19;16.60;64.80
29031;DHT22;16122;50.236;11.734;2024-01-15T01:00:44;16.70;64.80
29031;DHT22;16122;50.236;11.734;2024-01-15T01:03:10;16.60;64.70
29031;DHT22;16122;50.236;11.734;2024-01-15T01:05:36;16.70;64.30
29031;DHT22;16122;50.236;11.734;2024-01-15T01:08:03;16.70;64.50
29031;DHT22;16122;50.236;11.734;2024-01-15T01:10:29;16.70;64.40
29031;DHT22;16122;50.236;11.734;2024-01-15T01:12:54;16.70;64.50
29031;DHT22;16122;50.236;11.734;2024-01-15T01:15:21;16.70;64.30
29031;DHT22;16122;50.236;11.734;2024-01-15T01:17:47;16.70;64.10
29031;DHT22;16122;50.236;11.734;2024-01-15T01:20:13;16.70;63.70
29031;DHT22;16122;50.236;11.734;2024-01-15T01:22:40;16.70;62.70
29031;DHT22;16122;50.236;11.734;2024-01-15T01:25:07;16.70;62.50
29031;DHT22;16122;50.236;11.734;2024-01-15T01:27:33;16.70;62.30
29031;DHT22;16122;50.236;11.734;2024-01-15T01:29:59;16.70;62.20
29031;DHT22;16122;50.236;11.734;2024-01-15T01:32:25;16.70;61.90
29031;DHT22;16122;50.236;11.734;2024-01-15T01:34:52;16.70;61.90
29031;DHT22;16122;50.236;11.734;2024-01-15T01:37:18;16.70;62.10
29031;DHT22;16122;50.236;11.734;2024-01-15T01:39:44;16.70;61.80
29031;DHT22;16122;50.236;11.734;2024-01-15T01:42:11;16.60;62.00
29031;DHT22;16122;50.236;11.734;2024-01-15T01:44:37;16.60;62.30
29031;DHT22;16122;50.236;11.734;2024-01-15T01:47:04;16.60;62.00
29031;DHT22;16122;50.236;11.734;2024-01-15T01:49:30;16.60;62.20
29031;DHT22;16122;50.236;11.734;2024-01-15T01:51:58;16.60;61.70
29031;DHT22;16122;50.236;11.734;2024-01-15T01:54:29;16.60;61.50
29031;DHT22;16122;50.236;11.734;2024-01-15T01:56:57;16.50;61.50
29031;DHT22;16122;50.236;11.734;2024-01-15T01:59:25;16.60;61.60
29031;DHT22;16122;50.236;11.734;2024-01-15T02:01:54;16.50;61.60
29031;DHT22;16122;50.236;11.734;2024-01-15T02:04:24;16.40;61.20
29031;DHT22;16122;50.236;11.734;2024-01-15T02:06:51;16.50;61.50
29031;DHT22;16122;50.236;11.734;2024-01-15T02:09:18;16.40;61.50
29031;DHT22;16122;50.236;11.734;2024-01-15T02:11:46;16.40;61.70
29031;DHT22;16122;50.236;11.734;2024-01-15T02:14:12;16.30;61.90
29031;DHT22;16122;50.236;11.734;2024-01-15T02:16:37;16.40;62.10
29031;DHT22;16122;50.236;11.734;2024-01-15T02:19:03;16.30;62.10
29031;DHT22;16122;50.236;11.734;2024-01-15T02:21:29;16.30;62.20
29031;DHT22;16122;50.236;11.734;2024-01-15T02:23:56;16.30;62.30
29031;DHT22;16122;50.236;11.734;2024-01-15T02:26:23;16.20;62.20
29031;DHT22;16122;50.236;11.734;2024-01-15T02:28:49;16.20;62.40
29031;DHT22;16122;50.236;11.734;2024-01-15T02:31:16;16.20;62.40
29031;DHT22;16122;50.236;11.734;2024-01-15T02:33:42;16.20;61.70
29031;DHT22;16122;50.236;11.734;2024-01-15T02:36:09;16.30;62.00
29031;DHT22;16122;50.236;11.734;2024-01-15T02:38:35;16.30;62.40
29031;DHT22;16122;50.236;11.734;2024-01-15T02:41:00;16.50;62.60
29031;DHT22;16122;50.236;11.734;2024-01-15T02:43:26;16.50;62.50
29031;DHT22;16122;50.236;11.734;2024-01-15T02:45:52;16.50;62.10
29031;DHT22;16122;50.236;11.734;2024-01-15T02:48:18;16.50;62.50
29031;DHT22;16122;50.236;11.734;2024-01-15T02:50:44;16.50;62.40
29031;DHT22;16122;50.236;11.734;2024-01-15T02:53:09;16.50;62.60
29031;DHT22;16122;50.236;11.734;2024-01-15T02:55:35;16.50;62.40
29031;DHT22;16122;50.236;11.734;2024-01-15T02:58:01;16.50;63.10
29031;DHT22;16122;50.236;11.734;2024-01-15T03:00:27;16.60;62.40
29031;DHT22;16122;50.236;11.734;2024-01-15T03:02:52;16.60;62.40
29031;DHT22;16122;50.236;11.734;2024-01-15T03:05:18;16.60;62.60
29031;DHT22;16122;50.236;11.734;2024-01-15T03:07:44;16.60;62.60
29031;DHT22;16122;50.236;11.734;2024-01-15T03:10:10;16.60;62.50
29031;DHT22;16122;50.236;11.734;2024-01-15T03:12:36;16.70;62.80
29031;DHT22;16122;50.236;11.734;2024-01-15T03:15:01;16.70;62.50
29031;DHT22;16122;50.236;11.734;2024-01-15T03:17:28;16.80;62.80
29031;DHT22;16122;50.236;11.734;2024-01-15T03:19:54;16.80;62.80
29031;DHT22;16122;50.236;11.734;2024-01-15T03:22:19;16.70;62.60
29031;DHT22;16122;50.236;11.734;2024-01-15T03:24:45;16.80;62.70
29031;DHT22;16122;50.236;11.734;2024-01-15T03:27:11;16.70;62.50
29031;DHT22;16122;50.236;11.734;2024-01-15T03:29:37;16.70;62.80
29031;DHT22;16122;50.236;11.734;2024-01-15T03:32:03;16.70;62.80
29031;DHT22;16122;50.236;11.734;2024-01-15T03:34:28;16.80;62.90
29031;DHT22;16122;50.236;11.734;2024-01-15T03:36:55;16.80;63.00
29031;DHT22;16122;50.236;11.734;2024-01-15T03:39:20;16.80;62.90
29031;DHT22;16122;50.236;11.734;2024-01-15T03:41:46;16.80;63.00
29031;DHT22;16122;50.236;11.734;2024-01-15T03:44:12;16.80;62.60
29031;DHT22;16122;50.236;11.734;2024-01-15T03:46:38;16.80;63.10
29031;DHT22;16122;50.236;11.734;2024-01-15T03:49:03;16.80;63.00
29031;DHT22;16122;50.236;11.734;2024-01-15T03:51:29;16.80;63.00
29031;DHT22;16122;50.236;11.734;2024-01-15T03:53:55;16.80;63.00
29031;DHT22;16122;50.236;11.734;2024-01-15T03:56:21;16.90;63.30
29031;DHT22;16122;50.236;11.734;2024-01-15T03:58:46;16.80;63.10
29031;DHT22;16122;50.236;11.734;2024-01-15T04:01:12;16.80;63.10
29031;DHT22;16122;50.236;11.734;2024-01-15T04:03:39;16.80;63.00
29031;DHT22;16122;50.236;11.734;2024-01-15T04:06:05;16.80;62.80
29031;DHT22;16122;50.236;11.734;2024-01-15T04:08:31;16.80;62.60
29031;DHT22;16122;50.236;11.734;2024-01-15T04:10:57;16.70;62.10
29031;DHT22;16122;50.236;11.734;2024-01-15T04:13:23;16.80;62.10
29031;DHT22;16122;50.236;11.734;2024-01-15T04:15:49;16.70;61.40
29031;DHT22;16122;50.236;11.734;2024-01-15T04:18:16;16.70;61.70
29031;DHT22;16122;50.236;11.734;2024-01-15T04:20:43;16.70;61.20
29031;DHT22;16122;50.236;11.734;2024-01-15T04:23:09;16.70;61.10
29031;DHT22;16122;50.236;11.734;2024-01-15T04:25:35;16.70;61.40
29031;DHT22;16122;50.236;11.734;2024-01-15T04:28:01;16.60;61.10
29031;DHT22;16122;50.236;11.734;2024-01-15T04:30:27;16.60;61.00
29031;DHT22;16122;50.236;11.734;2024-01-15T04:32:52;16.60;60.80
29031;DHT22;16122;50.236;11.734;2024-01-15T04:35:18;16.70;61.00
29031;DHT22;16122;50.236;11.734;2024-01-15T04:37:44;16.60;60.70
29031;DHT22;16122;50.236;11.734;2024-01-15T04:40:10;16.50;60.60
29031;DHT22;16122;50.236;11.734;2024-01-15T04:42:36;16.60;60.40
29031;DHT22;16122;50.236;11.734;2024-01-15T04:45:02;16.50;60.40
29031;DHT22;16122;50.236;11.734;2024-01-15T04:47:29;16.50;60.30
29031;DHT22;16122;50.236;11.734;2024-01-15T04:49:55;16.50;60.30
29031;DHT22;16122;50.236;11.734;2024-01-15T04:52:20;16.50;60.50
29031;DHT22;16122;50.236;11.734;2024-01-15T04:54:46;16.40;60.50
29031;DHT22;16122;50.236;11.734;2024-01-15T04:57:12;16.40;60.80
29031;DHT22;16122;50.236;11.734;2024-01-15T04:59:38;16.40;60.60
29031;DHT22;16122;50.236;11.734;2024-01-15T05:02:05;16.40;60.80
29031;DHT22;16122;50.236;11.734;2024-01-15T05:04:30;16.40;61.10
29031;DHT22;16122;50.236;11.734;2024-01-15T05:06:56;16.30;61.10
29031;DHT22;16122;50.236;11.734;2024-01-15T05:09:22;16.30;61.00
29031;DHT22;16122;50.236;11.734;2024-01-15T05:11:48;16.30;61.30
29031;DHT22;16122;50.236;11.734;2024-01-15T05:14:13;16.30;61.50
29031;DHT22;16122;50.236;11.734;2024-01-15T05:16:46;16.30;61.80
29031;DHT22;16122;50.236;11.734;2024-01-15T05:19:12;16.30;61.20
29031;DHT22;16122;50.236;11.734;2024-01-15T05:21:38;16.30;61.60
29031;DHT22;16122;50.236;11.734;2024-01-15T05:24:03;16.30;62.40
29031;DHT22;16122;50.236;11.734;2024-01-15T05:26:29;16.40;62.80
29031;DHT22;16122;50.236;11.734;2024-01-15T05:28:56;16.40;62.90
29031;DHT22;16122;50.236;11.734;2024-01-15T05:31:21;16.50;63.10
29031;DHT22;16122;50.236;11.734;2024-01-15T05:33:47;16.50;63.60
29031;DHT22;16122;50.236;11.734;2024-01-15T05:36:13;16.60;64.70
29031;DHT22;16122;50.236;11.734;2024-01-15T05:38:39;16.70;64.20
29031;DHT22;16122;50.236;11.734;2024-01-15T05:41:05;16.70;64.40
29031;DHT22;16122;50.236;11.734;2024-01-15T05:43:31;16.70;64.50
29031;DHT22;16122;50.236;11.734;2024-01-15T05:45:57;16.80;64.70
29031;DHT22;16122;50.236;11.734;2024-01-15T05:48:23;16.80;64.90
29031;DHT22;16122;50.236;11.734;2024-01-15T05:50:49;16.80;65.20
29031;DHT22;16122;50.236;11.734;2024-01-15T05:53:15;16.80;65.20
29031;DHT22;16122;50.236;11.734;2024-01-15T05:55:40;16.80;65.00
29031;DHT22;16122;50.236;11.734;2024-01-15T05:58:06;16.90;65.30
29031;DHT22;16122;50.236;11.734;2024-01-15T06:00:32;16.90;65.50
29031;DHT22;16122;50.236;11.734;2024-01-15T06:03:00;16.90;65.50
29031;DHT22;16122;50.236;11.734;2024-01-15T06:05:25;16.90;65.50
29031;DHT22;16122;50.236;11.734;2024-01-15T06:07:51;16.90;65.60
29031;DHT22;16122;50.236;11.734;2024-01-15T06:10:17;16.90;65.60
29031;DHT22;16122;50.236;11.734;2024-01-15T06:12:44;16.90;65.70
29031;DHT22;16122;50.236;11.734;2024-01-15T06:15:10;16.90;65.50
29031;DHT22;16122;50.236;11.734;2024-01-15T06:17:35;16.90;65.20
29031;DHT22;16122;50.236;11.734;2024-01-15T06:20:02;16.90;65.30
29031;DHT22;16122;50.236;11.734;2024-01-15T06:22:28;16.80;64.80
29031;DHT22;16122;50.236;11.734;2024-01-15T06:24:54;16.80;65.00
29031;DHT22;16122;50.236;11.734;2024-01-15T06:27:21;16.90;65.00
29031;DHT22;16122;50.236;11.734;2024-01-15T06:29:47;16.80;64.50
29031;DHT22;16122;50.236;11.734;2024-01-15T06:32:13;16.80;64.40
29031;DHT22;16122;50.236;11.734;2024-01-15T06:34:39;16.80;63.90
29031;DHT22;16122;50.236;11.734;2024-01-15T06:37:06;16.70;64.00
29031;DHT22;16122;50.236;11.734;2024-01-15T06:39:31;16.70;63.70
29031;DHT22;16122;50.236;11.734;2024-01-15T06:41:57;16.80;63.70
29031;DHT22;16122;50.236;11.734;2024-01-15T06:44:23;16.70;63.70
29031;DHT22;16122;50.236;11.734;2024-01-15T06:46:49;16.70;63.90
29031;DHT22;16122;50.236;11.734;2024-01-15T06:49:15;16.60;63.90
29031;DHT22;16122;50.236;11.734;2024-01-15T06:51:40;16.80;63.90
29031;DHT22;16122;50.236;11.734;2024-01-15T06:54:07;16.70;64.00
29031;DHT22;16122;50.236;11.734;2024-01-15T06:56:33;16.70;64.20
29031;DHT22;16122;50.236;11.734;2024-01-15T06:58:58;16.60;64.00
29031;DHT22;16122;50.236;11.734;2024-01-15T07:01:24;16.60;64.20
29031;DHT22;16122;50.236;11.734;2024-01-15T07:03:50;16.60;64.30
29031;DHT22;16122;50.236;11.734;2024-01-15T07:06:16;16.60;64.10
29031;DHT22;16122;50.236;11.734;2024-01-15T07:08:42;16.60;64.00
29031;DHT22;16122;50.236;11.734;2024-01-15T07:11:08;16.60;63.80
29031;DHT22;16122;50.236;11.734;2024-01-15T07:13:36;16.60;64.10
29031;DHT22;16122;50.236;11.734;2024-01-15T07:16:02;16.60;64.30
29031;DHT22;16122;50.236;11.734;2024-01-15T07:18:28;16.50;64.20
29031;DHT22;16122;50.236;11.734;2024-01-15T07:20:54;16.50;64.30
29031;DHT22;16122;50.236;11.734;2024-01-15T07:23:19;16.50;64.40
29031;DHT22;16122;50.236;11.734;2024-01-15T07:25:45;16.50;64.40
29031;DHT22;16122;50.236;11.734;2024-01-15T07:28:11;16.50;64.60
29031;DHT22;16122;50.236;11.734;2024-01-15T07:30:37;16.50;64.60
29031;DHT22;16122;50.236;11.734;2024-01-15T07:33:04;16.40;64.60
29031;DHT22;16122;50.236;11.734;2024-01-15T07:35:31;16.40;64.90
29031;DHT22;16122;50.236;11.734;2024-01-15T07:37:57;16.40;64.90
29031;DHT22;16122;50.236;11.734;2024-01-15T07:40:23;16.40;63.90
29031;DHT22;16122;50.236;11.734;2024-01-15T07:42:50;16.50;64.70
29031;DHT22;16122;50.236;11.734;2024-01-15T07:45:16;16.50;64.50
29031;DHT22;16122;50.236;11.734;2024-01-15T07:47:43;16.50;64.70
29031;DHT22;16122;50.236;11.734;2024-01-15T07:50:08;16.60;64.90
29031;DHT22;16122;50.236;11.734;2024-01-15T07:52:34;16.50;64.60
29031;DHT22;16122;50.236;11.734;2024-01-15T07:55:00;16.60;64.40
29031;DHT22;16122;50.236;11.734;2024-01-15T07:57:26;16.50;64.80
29031;DHT22;16122;50.236;11.734;2024-01-15T07:59:52;16.60;65.10
29031;DHT22;16122;50.236;11.734;2024-01-15T08:02:18;16.70;65.20
29031;DHT22;16122;50.236;11.734;2024-01-15T08:04:44;16.70;65.30
29031;DHT22;16122;50.236;11.734;2024-01-15T08:07:10;16.70;65.50
29031;DHT22;16122;50.236;11.734;2024-01-15T08:09:36;16.70;65.60
29031;DHT22;16122;50.236;11.734;2024-01-15T08:12:02;16.80;66.00
29031;DHT22;16122;50.236;11.734;2024-01-15T08:14:28;16.90;66.10
29031;DHT22;16122;50.236;11.734;2024-01-15T08:16:53;16.80;66.10
29031;DHT22;16122;50.236;11.734;2024-01-15T08:19:19;16.90;66.20
29031;DHT22;16122;50.236;11.734;2024-01-15T08:21:48;16.90;66.30
29031;DHT22;16122;50.236;11.734;2024-01-15T08:24:14;17.00;66.50
29031;DHT22;16122;50.236;11.734;2024-01-15T08:26:40;16.90;66.50
29031;DHT22;16122;50.236;11.734;2024-01-15T08:29:06;17.00;66.90
29031;DHT22;16122;50.236;11.734;2024-01-15T08:31:32;17.00;67.10
29031;DHT22;16122;50.236;11.734;2024-01-15T08:33:58;17.00;67.60
29031;DHT22;16122;50.236;11.734;2024-01-15T08:36:25;17.00;73.50
29031;DHT22;16122;50.236;11.734;2024-01-15T08:38:51;17.00;74.20
29031;DHT22;16122;50.236;11.734;2024-01-15T08:41:16;17.00;73.80
29031;DHT22;16122;50.236;11.734;2024-01-15T08:43:42;17.00;73.80
29031;DHT22;16122;50.236;11.734;2024-01-15T08:46:08;16.90;71.60
29031;DHT22;16122;50.236;11.734;2024-01-15T08:48:34;17.00;71.00
29031;DHT22;16122;50.236;11.734;2024-01-15T08:51:00;16.90;70.60
29031;DHT22;16122;50.236;11.734;2024-01-15T08:53:25;16.90;70.70
29031;DHT22;16122;50.236;11.734;2024-01-15T08:55:52;16.90;70.00
29031;DHT22;16122;50.236;11.734;2024-01-15T08:58:18;16.90;69.90
29031;DHT22;16122;50.236;11.734;2024-01-15T09:00:44;16.80;69.60
29031;DHT22;16122;50.236;11.734;2024-01-15T09:03:10;16.80;69.50
29031;DHT22;16122;50.236;11.734;2024-01-15T09:05:35;16.80;69.50
29031;DHT22;16122;50.236;11.734;2024-01-15T09:08:01;16.70;69.20
29031;DHT22;16122;50.236;11.734;2024-01-15T09:10:27;16.70;68.70
29031;DHT22;16122;50.236;11.734;2024-01-15T09:12:53;16.70;68.80
29031;DHT22;16122;50.236;11.734;2024-01-15T09:15:19;16.70;68.70
29031;DHT22;16122;50.236;11.734;2024-01-15T09:17:45;16.70;68.90
29031;DHT22;16122;50.236;11.734;2024-01-15T09:20:12;16.70;68.60
29031;DHT22;16122;50.236;11.734;2024-01-15T09:22:41;16.60;68.70
29031;DHT22;16122;50.236;11.734;2024-01-15T09:25:08;16.60;68.80
29031;DHT22;16122;50.236;11.734;2024-01-15T09:27:37;16.60;68.60
29031;DHT22;16122;50.236;11.734;2024-01-15T09:30:06;16.50;68.40
29031;DHT22;16122;50.236;11.734;2024-01-15T09:32:33;16.60;68.50
29031;DHT22;16122;50.236;11.734;2024-01-15T09:34:59;16.60;68.80
29031;DHT22;16122;50.236;11.734;2024-01-15T09:37:25;16.50;68.50
29031;DHT22;16122;50.236;11.734;2024-01-15T09:39:51;16.60;69.30
29031;DHT22;16122;50.236;11.734;2024-01-15T09:42:18;16.50;68.50
29031;DHT22;16122;50.236;11.734;2024-01-15T09:44:44;16.50;68.50
29031;DHT22;16122;50.236;11.734;2024-01-15T09:47:11;16.50;68.60
29031;DHT22;16122;50.236;11.734;2024-01-15T09:49:38;16.50;68.90
29031;DHT22;16122;50.236;11.734;2024-01-15T09:52:06;16.50;69.00
29031;DHT22;16122;50.236;11.734;2024-01-15T09:54:33;16.50;69.30
29031;DHT22;16122;50.236;11.734;2024-01-15T09:57:00;16.50;69.60
29031;DHT22;16122;50.236;11.734;2024-01-15T09:59:27;16.40;69.60
29031;DHT22;16122;50.236;11.734;2024-01-15T10:01:53;16.50;70.50
29031;DHT22;16122;50.236;11.734;2024-01-15T10:04:21;16.50;70.80
29031;DHT22;16122;50.236;11.734;2024-01-15T10:06:47;16.50;70.90
29031;DHT22;16122;50.236;11.734;2024-01-15T10:09:16;16.40;70.70
29031;DHT22;16122;50.236;11.734;2024-01-15T10:11:43;16.30;70.90
29031;DHT22;16122;50.236;11.734;2024-01-15T10:14:10;16.30;71.30
29031;DHT22;16122;50.236;11.734;2024-01-15T10:16:39;16.30;71.30
29031;DHT22;16122;50.236;11.734;2024-01-15T10:19:05;16.30;71.20
29031;DHT22;16122;50.236;11.734;2024-01-15T10:21:32;16.30;71.30
29031;DHT22;16122;50.236;11.734;2024-01-15T10:24:01;16.30;71.70
29031;DHT22;16122;50.236;11.734;2024-01-15T10:26:27;16.30;71.50
29031;DHT22;16122;50.236;11.734;2024-01-15T10:28:53;16.20;72.10
29031;DHT22;16122;50.236;11.734;2024-01-15T10:31:18;16.30;72.90
29031;DHT22;16122;50.236;11.734;2024-01-15T10:33:50;16.30;74.10
29031;DHT22;16122;50.236;11.734;2024-01-15T10:36:17;16.30;74.90
29031;DHT22;16122;50.236;11.734;2024-01-15T10:38:43;16.30;77.40
29031;DHT22;16122;50.236;11.734;2024-01-15T10:41:09;16.30;79.40
29031;DHT22;16122;50.236;11.734;2024-01-15T10:43:35;16.30;75.90
29031;DHT22;16122;50.236;11.734;2024-01-15T10:46:02;16.30;56.60
29031;DHT22;16122;50.236;11.734;2024-01-15T10:48:29;16.30;56.90
29031;DHT22;16122;50.236;11.734;2024-01-15T10:50:57;16.30;57.00
29031;DHT22;16122;50.236;11.734;2024-01-15T10:53:24;16.30;57.10
29031;DHT22;16122;50.236;11.734;2024-01-15T10:55:51;16.40;57.30
29031;DHT22;16122;50.236;11.734;2024-01-15T10:58:21;16.40;57.30
29031;DHT22;16122;50.236;11.734;2024-01-15T11:00:49;16.40;57.00
29031;DHT22;16122;50.236;11.734;2024-01-15T11:03:15;16.40;57.20
29031;DHT22;16122;50.236;11.734;2024-01-15T11:05:43;16.40;57.30
29031;DHT22;16122;50.236;11.734;2024-01-15T11:08:09;16.40;57.30
29031;DHT22;16122;50.236;11.734;2024-01-15T11:10:43;16.50;57.40
29031;DHT22;16122;50.236;11.734;2024-01-15T11:16:04;16.50;57.60
29031;DHT22;16122;50.236;11.734;2024-01-15T11:18:31;16.60;58.00
29031;DHT22;16122;50.236;11.734;2024-01-15T11:23:57;16.70;58.50
29031;DHT22;16122;50.236;11.734;2024-01-15T11:26:35;16.70;58.30
29031;DHT22;16122;50.236;11.734;2024-01-15T11:34:05;16.80;58.10
29031;DHT22;16122;50.236;11.734;2024-01-15T11:42:02;16.90;58.50
29031;DHT22;16122;50.236;11.734;2024-01-15T11:44:29;16.90;58.80
29031;DHT22;16122;50.236;11.734;2024-01-15T11:47:00;16.90;58.90
29031;DHT22;16122;50.236;11.734;2024-01-15T11:52:19;16.90;58.90
29031;DHT22;16122;50.236;11.734;2024-01-15T12:00:07;16.80;58.90
29031;DHT22;16122;50.236;11.734;2024-01-15T12:02:42;16.80;58.80
29031;DHT22;16122;50.236;11.734;2024-01-15T12:05:09;16.80;58.80
29031;DHT22;16122;50.236;11.734;2024-01-15T12:07:36;16.70;58.80
29031;DHT22;16122;50.236;11.734;2024-01-15T12:10:02;16.80;58.80
29031;DHT22;16122;50.236;11.734;2024-01-15T12:12:45;16.70;58.80
29031;DHT22;16122;50.236;11.734;2024-01-15T12:15:12;16.70;58.80
29031;DHT22;16122;50.236;11.734;2024-01-15T12:17:39;16.60;58.70
29031;DHT22;16122;50.236;11.734;2024-01-15T12:20:05;16.70;58.60
29031;DHT22;16122;50.236;11.734;2024-01-15T12:22:31;16.60;58.60
29031;DHT22;16122;50.236;11.734;2024-01-15T12:24:57;16.60;58.30
29031;DHT22;16122;50.236;11.734;2024-01-15T12:27:23;16.60;58.20
29031;DHT22;16122;50.236;11.734;2024-01-15T12:29:50;16.60;58.30
29031;DHT22;16122;50.236;11.734;2024-01-15T12:32:15;16.60;58.00
29031;DHT22;16122;50.236;11.734;2024-01-15T12:34:43;16.60;57.60
29031;DHT22;16122;50.236;11.734;2024-01-15T12:37:09;16.60;57.70
29031;DHT22;16122;50.236;11.734;2024-01-15T12:39:35;16.60;57.60
29031;DHT22;16122;50.236;11.734;2024-01-15T12:42:02;16.60;57.60
29031;DHT22;16122;50.236;11.734;2024-01-15T12:44:28;16.50;57.60
29031;DHT22;16122;50.236;11.734;2024-01-15T12:46:54;16.60;57.60
29031;DHT22;16122;50.236;11.734;2024-01-15T12:49:21;16.50;57.20
29031;DHT22;16122;50.236;11.734;2024-01-15T12:51:59;16.50;57.60
29031;DHT22;16122;50.236;11.734;2024-01-15T12:54:26;16.50;57.60
29031;DHT22;16122;50.236;11.734;2024-01-15T12:56:52;16.40;57.60
29031;DHT22;16122;50.236;11.734;2024-01-15T12:59:18;16.40;57.60
29031;DHT22;16122;50.236;11.734;2024-01-15T13:01:45;16.40;57.50
29031;DHT22;16122;50.236;11.734;2024-01-15T13:04:20;16.40;57.70
29031;DHT22;16122;50.236;11.734;2024-01-15T13:06:46;16.40;57.80
29031;DHT22;16122;50.236;11.734;2024-01-15T13:09:12;16.40;57.70
29031;DHT22;16122;50.236;11.734;2024-01-15T13:11:38;16.30;57.80
29031;DHT22;16122;50.236;11.734;2024-01-15T13:14:03;16.30;57.60
29031;DHT22;16122;50.236;11.734;2024-01-15T13:16:29;16.30;57.60
29031;DHT22;16122;50.236;11.734;2024-01-15T13:18:55;16.30;57.60
29031;DHT22;16122;50.236;11.734;2024-01-15T13:21:24;16.30;57.60
29031;DHT22;16122;50.236;11.734;2024-01-15T13:23:50;16.30;57.70
29031;DHT22;16122;50.236;11.734;2024-01-15T13:26:16;16.20;57.60
29031;DHT22;16122;50.236;11.734;2024-01-15T13:28:44;16.20;57.70
29031;DHT22;16122;50.236;11.734;2024-01-15T13:31:09;16.20;57.60
29031;DHT22;16122;50.236;11.734;2024-01-15T13:33:35;16.20;57.60
29031;DHT22;16122;50.236;11.734;2024-01-15T13:36:01;16.20;57.80
29031;DHT22;16122;50.236;11.734;2024-01-15T13:39:02;16.20;57.50
29031;DHT22;16122;50.236;11.734;2024-01-15T13:41:28;16.20;57.80
29031;DHT22;16122;50.236;11.734;2024-01-15T13:43:55;16.30;58.20
29031;DHT22;16122;50.236;11.734;2024-01-15T13:46:24;16.30;58.10
29031;DHT22;16122;50.236;11.734;2024-01-15T13:48:50;16.40;58.30
29031;DHT22;16122;50.236;11.734;2024-01-15T13:51:15;16.30;57.70
29031;DHT22;16122;50.236;11.734;2024-01-15T13:53:41;16.30;57.40
29031;DHT22;16122;50.236;11.734;2024-01-15T13:56:07;16.30;57.50
29031;DHT22;16122;50.236;11.734;2024-01-15T13:58:35;16.40;57.60
29031;DHT22;16122;50.236;11.734;2024-01-15T14:01:02;16.40;57.70
29031;DHT22;16122;50.236;11.734;2024-01-15T14:03:29;16.40;57.60
29031;DHT22;16122;50.236;11.734;2024-01-15T14:05:55;16.50;57.80
29031;DHT22;16122;50.236;11.734;2024-01-15T14:08:21;16.50;58.00
29031;DHT22;16122;50.236;11.734;2024-01-15T14:10:47;16.60;58.00
29031;DHT22;16122;50.236;11.734;2024-01-15T14:13:12;16.60;58.10
29031;DHT22;16122;50.236;11.734;2024-01-15T14:15:38;16.60;58.00
29031;DHT22;16122;50.236;11.734;2024-01-15T14:18:04;16.60;58.00
29031;DHT22;16122;50.236;11.734;2024-01-15T14:20:30;16.70;58.10
29031;DHT22;16122;50.236;11.734;2024-01-15T14:22:56;16.70;58.00
29031;DHT22;16122;50.236;11.734;2024-01-15T14:25:22;16.80;58.10
29031;DHT22;16122;50.236;11.734;2024-01-15T14:27:49;16.80;58.10
29031;DHT22;16122;50.236;11.734;2024-01-15T14:30:16;16.80;58.20
29031;DHT22;16122;50.236;11.734;2024-01-15T14:32:44;16.80;58.20
29031;DHT22;16122;50.236;11.734;2024-01-15T14:35:10;16.90;58.40
29031;DHT22;16122;50.236;11.734;2024-01-15T14:37:39;16.80;58.30
29031;DHT22;16122;50.236;11.734;2024-01-15T14:40:09;16.80;58.30
29031;DHT22;16122;50.236;11.734;2024-01-15T14:42:36;16.80;58.30
29031;DHT22;16122;50.236;11.734;2024-01-15T14:45:06;16.80;58.50
29031;DHT22;16122;50.236;11.734;2024-01-15T14:47:38;16.80;58.40
29031;DHT22;16122;50.236;11.734;2024-01-15T14:50:06;16.70;58.80
29031;DHT22;16122;50.236;11.734;2024-01-15T14:52:32;16.70;58.20
29031;DHT22;16122;50.236;11.734;2024-01-15T14:54:59;16.70;58.10
29031;DHT22;16122;50.236;11.734;2024-01-15T14:57:25;16.70;58.10
29031;DHT22;16122;50.236;11.734;2024-01-15T14:59:51;16.70;58.00
29031;DHT22;16122;50.236;11.734;2024-01-15T15:02:17;16.70;57.90
29031;DHT22;16122;50.236;11.734;2024-01-15T15:04:43;16.70;58.20
29031;DHT22;16122;50.236;11.734;2024-01-15T15:07:09;16.60;57.90
29031;DHT22;16122;50.236;11.734;2024-01-15T15:09:36;16.60;57.90
29031;DHT22;16122;50.236;11.734;2024-01-15T15:12:04;16.60;57.90
29031;DHT22;16122;50.236;11.734;2024-01-15T15:14:31;16.60;57.70
29031;DHT22;16122;50.236;11.734;2024-01-15T15:17:06;16.60;57.60
29031;DHT22;16122;50.236;11.734;2024-01-15T15:19:32;16.50;57.40
29031;DHT22;16122;50.236;11.734;2024-01-15T15:21:58;16.60;57.60
29031;DHT22;16122;50.236;11.734;2024-01-15T15:24:24;16.50;57.50
29031;DHT22;16122;50.236;11.734;2024-01-15T15:26:50;16.60;57.20
29031;DHT22;16122;50.236;11.734;2024-01-15T15:29:16;16.50;57.10
29031;DHT22;16122;50.236;11.734;2024-01-15T15:31:43;16.50;57.70
29031;DHT22;16122;50.236;11.734;2024-01-15T15:34:08;16.50;57.50
29031;DHT22;16122;50.236;11.734;2024-01-15T15:36:35;16.40;57.60